sensor_id;sensor_type;location;lat;lon;timestamp;temperature;humidity
6443;DHT22;3254;47.372;8.512;2022-12-20T00:01:11;2.00;99.90
6443;DHT22;3254;47.372;8.512;2022-12-20T00:03:37;2.00;99.90
6443;DHT22;3254;47.372;8.512;2022-12-20T00:06:04;2.00;99.90
6443;DHT22;3254;47.372;8.512;2022-12-20T00:08:30;2.00;99.90
6443;DHT22;3254;47.372;8.512;2022-12-20T00:10:56;2.00;99.90
6443;DHT22;3254;47.372;8.512;2022-12-20T00:13:24;2.00;99.90
6443;DHT22;3254;47.372;8.512;2022-12-20T00:15:49;2.00;99.90
6443;DHT22;3254;47.372;8.512;2022-12-20T00:18:15;2.10;99.90
6443;DHT22;3254;47.372;8.512;2022-12-20T00:20:40;2.10;99.90
6443;DHT22;3254;47.372;8.512;2022-12-20T00:23:06;2.00;99.90
6443;DHT22;3254;47.372;8.512;2022-12-20T00:25:31;2.00;99.90
6443;DHT22;3254;47.372;8.512;2022-12-20T00:27:57;1.90;99.90
6443;DHT22;3254;47.372;8.512;2022-12-20T00:30:22;1.90;99.90
6443;DHT22;3254;47.372;8.512;2022-12-20T00:32:48;1.90;99.90
6443;DHT22;3254;47.372;8.512;2022-12-20T00:35:14;1.80;99.90
6443;DHT22;3254;47.372;8.512;2022-12-20T00:37:39;1.70;99.90
6443;DHT22;3254;47.372;8.512;2022-12-20T00:40:06;1.60;99.90
6443;DHT22;3254;47.372;8.512;2022-12-20T00:42:31;1.50;99.90
6443;DHT22;3254;47.372;8.512;2022-12-20T00:44:57;1.50;99.90
6443;DHT22;3254;47.372;8.512;2022-12-20T00:47:23;1.40;99.90
6443;DHT22;3254;47.372;8.512;2022-12-20T00:49:48;1.40;99.90
6443;DHT22;3254;47.372;8.512;2022-12-20T00:52:14;1.40;99.90
6443;DHT22;3254;47.372;8.512;2022-12-20T00:54:40;1.30;99.90
6443;DHT22;3254;47.372;8.512;2022-12-20T00:57:05;1.40;99.90
6443;DHT22;3254;47.372;8.512;2022-12-20T00:59:32;1.40;99.90
6443;DHT22;3254;47.372;8.512;2022-12-20T01:01:58;1.40;99.90
6443;DHT22;3254;47.372;8.512;2022-12-20T01:04:23;1.40;99.90
6443;DHT22;3254;47.372;8.512;2022-12-20T01:06:49;1.40;99.90
6443;DHT22;3254;47.372;8.512;2022-12-20T01:09:14;1.40;99.90
6443;DHT22;3254;47.372;8.512;2022-12-20T01:11:40;1.30;99.90
6443;DHT22;3254;47.372;8.512;2022-12-20T01:14:10;1.20;99.90
6443;DHT22;3254;47.372;8.512;2022-12-20T01:16:38;1.10;99.90
6443;DHT22;3254;47.372;8.512;2022-12-20T01:19:05;1.10;99.90
6443;DHT22;3254;47.372;8.512;2022-12-20T01:21:31;1.20;99.90
6443;DHT22;3254;47.372;8.512;2022-12-20T01:23:57;1.10;99.90
6443;DHT22;3254;47.372;8.512;2022-12-20T01:26:26;1.00;99.90
6443;DHT22;3254;47.372;8.512;2022-12-20T01:28:57;0.90;99.90
6443;DHT22;3254;47.372;8.512;2022-12-20T01:31:26;0.80;99.90
6443;DHT22;3254;47.372;8.512;2022-12-20T01:33:52;0.80;99.90
6443;DHT22;3254;47.372;8.512;2022-12-20T01:36:20;0.90;99.90
6443;DHT22;3254;47.372;8.512;2022-12-20T01:38:46;1.00;99.90
6443;DHT22;3254;47.372;8.512;2022-12-20T01:41:18;1.00;99.90
6443;DHT22;3254;47.372;8.512;2022-12-20T01:43:50;1.00;99.90
6443;DHT22;3254;47.372;8.512;2022-12-20T01:46:19;1.00;99.90
6443;DHT22;3254;47.372;8.512;2022-12-20T01:48:55;1.00;99.90
6443;DHT22;3254;47.372;8.512;2022-12-20T01:51:24;1.00;99.90
6443;DHT22;3254;47.372;8.512;2022-12-20T01:53:56;1.00;99.90
6443;DHT22;3254;47.372;8.512;2022-12-20T01:56:23;1.00;99.90
6443;DHT22;3254;47.372;8.512;2022-12-20T01:58:50;1.00;99.90
6443;DHT22;3254;47.372;8.512;2022-12-20T02:01:17;1.00;99.90
6443;DHT22;3254;47.372;8.512;2022-12-20T02:03:43;1.00;99.90
6443;DHT22;3254;47.372;8.512;2022-12-20T02:06:17;1.00;99.90
6443;DHT22;3254;47.372;8.512;2022-12-20T02:08:45;1.00;99.90
6443;DHT22;3254;47.372;8.512;2022-12-20T02:14:04;1.00;99.90
6443;DHT22;3254;47.372;8.512;2022-12-20T02:16:39;1.00;99.90
6443;DHT22;3254;47.372;8.512;2022-12-20T02:21:42;0.80;99.90
6443;DHT22;3254;47.372;8.512;2022-12-20T02:27:13;0.80;99.90
6443;DHT22;3254;47.372;8.512;2022-12-20T02:30:08;0.70;99.90
6443;DHT22;3254;47.372;8.512;2022-12-20T02:32:47;0.70;99.90
6443;DHT22;3254;47.372;8.512;2022-12-20T02:35:19;0.70;99.90
6443;DHT22;3254;47.372;8.512;2022-12-20T02:37:50;0.70;99.90
6443;DHT22;3254;47.372;8.512;2022-12-20T02:40:24;0.70;99.90
6443;DHT22;3254;47.372;8.512;2022-12-20T02:42:54;0.70;99.90
6443;DHT22;3254;47.372;8.512;2022-12-20T02:45:23;0.70;99.90
6443;DHT22;3254;47.372;8.512;2022-12-20T02:47:58;0.60;99.90
6443;DHT22;3254;47.372;8.512;2022-12-20T02:50:29;0.60;99.90
6443;DHT22;3254;47.372;8.512;2022-12-20T02:52:56;0.50;99.90
6443;DHT22;3254;47.372;8.512;2022-12-20T02:55:35;0.50;99.90
6443;DHT22;3254;47.372;8.512;2022-12-20T02:58:16;0.50;99.90
6443;DHT22;3254;47.372;8.512;2022-12-20T03:00:45;0.40;99.90
6443;DHT22;3254;47.372;8.512;2022-12-20T03:03:12;0.50;99.90
6443;DHT22;3254;47.372;8.512;2022-12-20T03:05:49;0.50;99.90
6443;DHT22;3254;47.372;8.512;2022-12-20T03:08:16;0.50;99.90
6443;DHT22;3254;47.372;8.512;2022-12-20T03:10:41;0.60;99.90
6443;DHT22;3254;47.372;8.512;2022-12-20T03:13:07;0.50;99.90
6443;DHT22;3254;47.372;8.512;2022-12-20T03:15:33;0.60;99.90
6443;DHT22;3254;47.372;8.512;2022-12-20T03:17:58;0.50;99.90
6443;DHT22;3254;47.372;8.512;2022-12-20T03:20:24;0.50;99.90
6443;DHT22;3254;47.372;8.512;2022-12-20T03:22:49;0.50;99.90
6443;DHT22;3254;47.372;8.512;2022-12-20T03:25:16;0.50;99.90
6443;DHT22;3254;47.372;8.512;2022-12-20T03:27:41;0.50;99.90
6443;DHT22;3254;47.372;8.512;2022-12-20T03:30:07;0.40;99.90
6443;DHT22;3254;47.372;8.512;2022-12-20T03:32:33;0.30;99.90
6443;DHT22;3254;47.372;8.512;2022-12-20T03:34:59;0.30;99.90
6443;DHT22;3254;47.372;8.512;2022-12-20T03:37:24;0.30;99.90
6443;DHT22;3254;47.372;8.512;2022-12-20T03:39:50;0.30;99.90
6443;DHT22;3254;47.372;8.512;2022-12-20T03:42:15;0.40;99.90
6443;DHT22;3254;47.372;8.512;2022-12-20T03:44:41;0.50;99.90
6443;DHT22;3254;47.372;8.512;2022-12-20T03:47:07;0.50;99.90
6443;DHT22;3254;47.372;8.512;2022-12-20T03:49:32;0.50;99.90
6443;DHT22;3254;47.372;8.512;2022-12-20T03:51:58;0.30;99.90
6443;DHT22;3254;47.372;8.512;2022-12-20T03:54:24;0.30;99.90
6443;DHT22;3254;47.372;8.512;2022-12-20T03:56:49;0.20;99.90
6443;DHT22;3254;47.372;8.512;2022-12-20T03:59:15;0.20;99.90
6443;DHT22;3254;47.372;8.512;2022-12-20T04:01:41;0.30;99.90
6443;DHT22;3254;47.372;8.512;2022-12-20T04:04:08;0.30;99.90
6443;DHT22;3254;47.372;8.512;2022-12-20T04:06:34;0.20;99.90
6443;DHT22;3254;47.372;8.512;2022-12-20T04:09:00;0.20;99.90
6443;DHT22;3254;47.372;8.512;2022-12-20T04:11:26;0.10;99.90
6443;DHT22;3254;47.372;8.512;2022-12-20T04:13:52;0.20;99.90
6443;DHT22;3254;47.372;8.512;2022-12-20T04:16:26;0.20;99.90
6443;DHT22;3254;47.372;8.512;2022-12-20T04:18:52;0.20;99.90
6443;DHT22;3254;47.372;8.512;2022-12-20T04:21:22;0.30;99.90
6443;DHT22;3254;47.372;8.512;2022-12-20T04:23:49;0.20;99.90
6443;DHT22;3254;47.372;8.512;2022-12-20T04:26:14;0.30;99.90
6443;DHT22;3254;47.372;8.512;2022-12-20T04:28:40;0.30;99.90
6443;DHT22;3254;47.372;8.512;2022-12-20T04:31:05;0.30;99.90
6443;DHT22;3254;47.372;8.512;2022-12-20T04:33:31;0.30;99.90
6443;DHT22;3254;47.372;8.512;2022-12-20T04:35:57;0.30;99.90
6443;DHT22;3254;47.372;8.512;2022-12-20T04:38:23;0.40;99.90
6443;DHT22;3254;47.372;8.512;2022-12-20T04:40:50;0.40;99.90
6443;DHT22;3254;47.372;8.512;2022-12-20T04:43:17;0.40;99.90
6443;DHT22;3254;47.372;8.512;2022-12-20T04:45:43;0.40;99.90
6443;DHT22;3254;47.372;8.512;2022-12-20T04:48:09;0.40;99.90
6443;DHT22;3254;47.372;8.512;2022-12-20T04:50:35;0.30;99.90
6443;DHT22;3254;47.372;8.512;2022-12-20T04:53:01;0.30;99.90
6443;DHT22;3254;47.372;8.512;2022-12-20T04:55:45;0.30;99.90
6443;DHT22;3254;47.372;8.512;2022-12-20T04:58:10;0.30;99.90
6443;DHT22;3254;47.372;8.512;2022-12-20T05:00:36;0.40;99.90
6443;DHT22;3254;47.372;8.512;2022-12-20T05:03:01;0.40;99.90
6443;DHT22;3254;47.372;8.512;2022-12-20T05:05:27;0.40;99.90
6443;DHT22;3254;47.372;8.512;2022-12-20T05:07:53;0.40;99.90
6443;DHT22;3254;47.372;8.512;2022-12-20T05:10:19;0.40;99.90
6443;DHT22;3254;47.372;8.512;2022-12-20T05:12:44;0.30;99.90
6443;DHT22;3254;47.372;8.512;2022-12-20T05:15:11;0.30;99.90
6443;DHT22;3254;47.372;8.512;2022-12-20T05:17:37;0.40;99.90
6443;DHT22;3254;47.372;8.512;2022-12-20T05:20:03;0.30;99.90
6443;DHT22;3254;47.372;8.512;2022-12-20T05:22:29;0.30;99.90
6443;DHT22;3254;47.372;8.512;2022-12-20T05:25:13;0.30;99.90
6443;DHT22;3254;47.372;8.512;2022-12-20T05:27:58;0.40;99.90
6443;DHT22;3254;47.372;8.512;2022-12-20T05:30:24;0.50;99.90
6443;DHT22;3254;47.372;8.512;2022-12-20T05:32:49;0.50;99.90
6443;DHT22;3254;47.372;8.512;2022-12-20T05:35:15;0.50;99.90
6443;DHT22;3254;47.372;8.512;2022-12-20T05:37:40;0.40;99.90
6443;DHT22;3254;47.372;8.512;2022-12-20T05:40:07;0.40;99.90
6443;DHT22;3254;47.372;8.512;2022-12-20T05:42:33;0.40;99.90
6443;DHT22;3254;47.372;8.512;2022-12-20T05:44:58;0.40;99.90
6443;DHT22;3254;47.372;8.512;2022-12-20T05:47:26;0.40;99.90
6443;DHT22;3254;47.372;8.512;2022-12-20T05:49:51;0.50;99.90
6443;DHT22;3254;47.372;8.512;2022-12-20T05:52:17;0.50;99.90
6443;DHT22;3254;47.372;8.512;2022-12-20T05:54:42;0.50;99.90
6443;DHT22;3254;47.372;8.512;2022-12-20T05:57:08;0.50;99.90
6443;DHT22;3254;47.372;8.512;2022-12-20T05:59:33;0.50;99.90
6443;DHT22;3254;47.372;8.512;2022-12-20T06:01:59;0.50;99.90
6443;DHT22;3254;47.372;8.512;2022-12-20T06:04:25;0.60;99.90
6443;DHT22;3254;47.372;8.512;2022-12-20T06:06:51;0.60;99.90
6443;DHT22;3254;47.372;8.512;2022-12-20T06:09:16;0.60;99.90
6443;DHT22;3254;47.372;8.512;2022-12-20T06:11:42;0.60;99.90
6443;DHT22;3254;47.372;8.512;2022-12-20T06:14:08;0.50;99.90
6443;DHT22;3254;47.372;8.512;2022-12-20T06:16:33;0.40;99.90
6443;DHT22;3254;47.372;8.512;2022-12-20T06:19:00;0.40;99.90
6443;DHT22;3254;47.372;8.512;2022-12-20T06:21:27;0.30;99.90
6443;DHT22;3254;47.372;8.512;2022-12-20T06:23:53;0.20;99.90
6443;DHT22;3254;47.372;8.512;2022-12-20T06:26:19;0.10;99.90
6443;DHT22;3254;47.372;8.512;2022-12-20T06:28:48;0.10;99.90
6443;DHT22;3254;47.372;8.512;2022-12-20T06:31:17;0.10;99.90
6443;DHT22;3254;47.372;8.512;2022-12-20T06:33:43;0.20;99.90
6443;DHT22;3254;47.372;8.512;2022-12-20T06:36:09;0.10;99.90
6443;DHT22;3254;47.372;8.512;2022-12-20T06:38:34;0.20;99.90
6443;DHT22;3254;47.372;8.512;2022-12-20T06:41:00;0.20;99.90
6443;DHT22;3254;47.372;8.512;2022-12-20T06:43:26;0.30;99.90
6443;DHT22;3254;47.372;8.512;2022-12-20T06:45:51;0.30;99.90
6443;DHT22;3254;47.372;8.512;2022-12-20T06:48:17;0.40;99.90
6443;DHT22;3254;47.372;8.512;2022-12-20T06:50:47;0.40;99.90
6443;DHT22;3254;47.372;8.512;2022-12-20T06:53:13;0.40;99.90
6443;DHT22;3254;47.372;8.512;2022-12-20T06:55:38;0.40;99.90
6443;DHT22;3254;47.372;8.512;2022-12-20T06:58:04;0.40;99.90
6443;DHT22;3254;47.372;8.512;2022-12-20T07:00:30;0.40;99.90
6443;DHT22;3254;47.372;8.512;2022-12-20T07:02:55;0.50;99.90
6443;DHT22;3254;47.372;8.512;2022-12-20T07:05:21;0.50;99.90
6443;DHT22;3254;47.372;8.512;2022-12-20T07:07:46;0.70;99.90
6443;DHT22;3254;47.372;8.512;2022-12-20T07:10:12;0.80;99.90
6443;DHT22;3254;47.372;8.512;2022-12-20T07:12:37;0.80;99.90
6443;DHT22;3254;47.372;8.512;2022-12-20T07:15:04;0.90;99.90
6443;DHT22;3254;47.372;8.512;2022-12-20T07:17:29;0.90;99.90
6443;DHT22;3254;47.372;8.512;2022-12-20T07:19:55;0.80;99.90
6443;DHT22;3254;47.372;8.512;2022-12-20T07:22:21;0.90;99.90
6443;DHT22;3254;47.372;8.512;2022-12-20T07:24:46;0.90;99.90
6443;DHT22;3254;47.372;8.512;2022-12-20T07:27:12;0.90;99.90
6443;DHT22;3254;47.372;8.512;2022-12-20T07:29:38;0.90;99.90
6443;DHT22;3254;47.372;8.512;2022-12-20T07:32:06;1.00;99.90
6443;DHT22;3254;47.372;8.512;2022-12-20T07:34:32;1.10;99.90
6443;DHT22;3254;47.372;8.512;2022-12-20T07:36:57;1.10;99.90
6443;DHT22;3254;47.372;8.512;2022-12-20T07:39:23;1.20;99.90
6443;DHT22;3254;47.372;8.512;2022-12-20T07:41:53;1.20;99.90
6443;DHT22;3254;47.372;8.512;2022-12-20T07:44:19;1.30;99.90
6443;DHT22;3254;47.372;8.512;2022-12-20T07:46:45;1.20;99.90
6443;DHT22;3254;47.372;8.512;2022-12-20T07:49:11;1.30;99.90
6443;DHT22;3254;47.372;8.512;2022-12-20T07:51:43;1.30;99.90
6443;DHT22;3254;47.372;8.512;2022-12-20T07:54:11;1.30;99.90
6443;DHT22;3254;47.372;8.512;2022-12-20T07:56:39;1.40;99.90
6443;DHT22;3254;47.372;8.512;2022-12-20T07:59:07;1.40;99.90
6443;DHT22;3254;47.372;8.512;2022-12-20T08:01:34;1.40;99.90
6443;DHT22;3254;47.372;8.512;2022-12-20T08:04:08;1.40;99.90
6443;DHT22;3254;47.372;8.512;2022-12-20T08:06:36;1.50;99.90
6443;DHT22;3254;47.372;8.512;2022-12-20T08:09:04;1.60;99.90
6443;DHT22;3254;47.372;8.512;2022-12-20T08:11:32;1.80;99.90
6443;DHT22;3254;47.372;8.512;2022-12-20T08:13:59;1.90;99.90
6443;DHT22;3254;47.372;8.512;2022-12-20T08:16:25;2.10;99.90
6443;DHT22;3254;47.372;8.512;2022-12-20T08:18:51;2.30;99.90
6443;DHT22;3254;47.372;8.512;2022-12-20T08:21:16;2.40;99.90
6443;DHT22;3254;47.372;8.512;2022-12-20T08:23:42;2.50;99.90
6443;DHT22;3254;47.372;8.512;2022-12-20T08:26:07;2.60;99.90
6443;DHT22;3254;47.372;8.512;2022-12-20T08:28:33;2.60;99.90
6443;DHT22;3254;47.372;8.512;2022-12-20T08:31:03;2.60;99.90
6443;DHT22;3254;47.372;8.512;2022-12-20T08:33:31;2.60;99.90
6443;DHT22;3254;47.372;8.512;2022-12-20T08:36:01;2.60;99.90
6443;DHT22;3254;47.372;8.512;2022-12-20T08:38:28;2.70;99.90
6443;DHT22;3254;47.372;8.512;2022-12-20T08:40:54;2.60;99.90
6443;DHT22;3254;47.372;8.512;2022-12-20T08:43:19;2.70;99.90
6443;DHT22;3254;47.372;8.512;2022-12-20T08:45:52;2.80;99.90
6443;DHT22;3254;47.372;8.512;2022-12-20T08:48:18;2.90;99.90
6443;DHT22;3254;47.372;8.512;2022-12-20T08:50:44;3.00;99.90
6443;DHT22;3254;47.372;8.512;2022-12-20T08:53:09;3.10;99.90
6443;DHT22;3254;47.372;8.512;2022-12-20T08:55:35;3.00;99.90
6443;DHT22;3254;47.372;8.512;2022-12-20T08:58:00;3.10;99.90
6443;DHT22;3254;47.372;8.512;2022-12-20T09:00:26;3.20;99.90
6443;DHT22;3254;47.372;8.512;2022-12-20T09:02:53;3.30;99.90
6443;DHT22;3254;47.372;8.512;2022-12-20T09:05:19;3.40;99.90
6443;DHT22;3254;47.372;8.512;2022-12-20T09:07:44;3.50;99.90
6443;DHT22;3254;47.372;8.512;2022-12-20T09:10:11;3.70;97.80
6443;DHT22;3254;47.372;8.512;2022-12-20T09:12:37;3.90;99.00
6443;DHT22;3254;47.372;8.512;2022-12-20T09:15:04;4.10;89.30
6443;DHT22;3254;47.372;8.512;2022-12-20T09:17:30;4.20;84.10
6443;DHT22;3254;47.372;8.512;2022-12-20T09:19:55;4.30;76.60
6443;DHT22;3254;47.372;8.512;2022-12-20T09:22:21;4.20;71.20
6443;DHT22;3254;47.372;8.512;2022-12-20T09:24:46;4.30;70.50
6443;DHT22;3254;47.372;8.512;2022-12-20T09:27:12;4.30;73.50
6443;DHT22;3254;47.372;8.512;2022-12-20T09:29:37;4.30;72.50
6443;DHT22;3254;47.372;8.512;2022-12-20T09:32:03;4.30;71.50
6443;DHT22;3254;47.372;8.512;2022-12-20T09:34:29;4.40;64.80
6443;DHT22;3254;47.372;8.512;2022-12-20T09:36:54;4.30;67.50
6443;DHT22;3254;47.372;8.512;2022-12-20T09:39:20;4.40;60.20
6443;DHT22;3254;47.372;8.512;2022-12-20T09:41:45;4.40;58.40
6443;DHT22;3254;47.372;8.512;2022-12-20T09:46:55;4.50;59.70
6443;DHT22;3254;47.372;8.512;2022-12-20T09:49:26;4.50;65.10
6443;DHT22;3254;47.372;8.512;2022-12-20T09:54:52;4.70;63.70
6443;DHT22;3254;47.372;8.512;2022-12-20T09:57:42;4.70;60.90
6443;DHT22;3254;47.372;8.512;2022-12-20T10:00:13;4.80;59.00
6443;DHT22;3254;47.372;8.512;2022-12-20T10:02:39;4.80;59.20
6443;DHT22;3254;47.372;8.512;2022-12-20T10:05:15;4.90;59.00
6443;DHT22;3254;47.372;8.512;2022-12-20T10:07:52;5.00;59.60
6443;DHT22;3254;47.372;8.512;2022-12-20T10:13:24;5.40;52.60
6443;DHT22;3254;47.372;8.512;2022-12-20T10:24:25;6.20;41.20
6443;DHT22;3254;47.372;8.512;2022-12-20T10:26:52;6.50;38.90
6443;DHT22;3254;47.372;8.512;2022-12-20T10:29:18;7.10;34.30
6443;DHT22;3254;47.372;8.512;2022-12-20T10:31:48;8.10;22.60
6443;DHT22;3254;47.372;8.512;2022-12-20T10:34:13;8.50;9.70
6443;DHT22;3254;47.372;8.512;2022-12-20T10:36:39;9.00;4.00
6443;DHT22;3254;47.372;8.512;2022-12-20T10:39:08;10.00;1.00
6443;DHT22;3254;47.372;8.512;2022-12-20T10:44:27;10.90;1.00
6443;DHT22;3254;47.372;8.512;2022-12-20T10:46:56;11.00;1.00
6443;DHT22;3254;47.372;8.512;2022-12-20T10:49:32;10.90;1.00
6443;DHT22;3254;47.372;8.512;2022-12-20T10:52:10;10.40;1.00
6443;DHT22;3254;47.372;8.512;2022-12-20T10:54:37;10.60;1.00
6443;DHT22;3254;47.372;8.512;2022-12-20T10:57:26;11.60;1.00
6443;DHT22;3254;47.372;8.512;2022-12-20T11:04:58;12.40;1.00
6443;DHT22;3254;47.372;8.512;2022-12-20T11:07:27;13.00;1.00
6443;DHT22;3254;47.372;8.512;2022-12-20T11:10:02;12.90;1.00
6443;DHT22;3254;47.372;8.512;2022-12-20T11:12:28;13.00;1.00
6443;DHT22;3254;47.372;8.512;2022-12-20T11:15:19;12.80;1.00
6443;DHT22;3254;47.372;8.512;2022-12-20T11:17:46;12.30;1.00
6443;DHT22;3254;47.372;8.512;2022-12-20T11:31:51;10.20;1.00
6443;DHT22;3254;47.372;8.512;2022-12-20T11:37:24;9.60;1.00
6443;DHT22;3254;47.372;8.512;2022-12-20T11:53:37;8.70;1.00
6443;DHT22;3254;47.372;8.512;2022-12-20T11:56:23;8.60;1.00
6443;DHT22;3254;47.372;8.512;2022-12-20T12:01:20;8.60;1.00
6443;DHT22;3254;47.372;8.512;2022-12-20T12:04:13;8.60;1.00
6443;DHT22;3254;47.372;8.512;2022-12-20T12:06:55;8.80;1.00
6443;DHT22;3254;47.372;8.512;2022-12-20T12:09:32;9.10;1.00
6443;DHT22;3254;47.372;8.512;2022-12-20T12:17:41;10.00;1.00
6443;DHT22;3254;47.372;8.512;2022-12-20T12:20:32;10.10;1.00
6443;DHT22;3254;47.372;8.512;2022-12-20T12:23:15;10.10;1.00
6443;DHT22;3254;47.372;8.512;2022-12-20T12:25:44;10.00;1.00
6443;DHT22;3254;47.372;8.512;2022-12-20T12:28:12;10.30;1.00
6443;DHT22;3254;47.372;8.512;2022-12-20T12:30:45;11.70;1.00
6443;DHT22;3254;47.372;8.512;2022-12-20T12:33:17;13.20;1.00
6443;DHT22;3254;47.372;8.512;2022-12-20T12:35:55;14.30;1.00
6443;DHT22;3254;47.372;8.512;2022-12-20T12:38:43;15.10;1.00
6443;DHT22;3254;47.372;8.512;2022-12-20T12:41:16;15.90;1.00
6443;DHT22;3254;47.372;8.512;2022-12-20T12:43:52;16.40;1.00
6443;DHT22;3254;47.372;8.512;2022-12-20T12:46:28;16.70;1.00
6443;DHT22;3254;47.372;8.512;2022-12-20T12:48:59;16.70;1.00
6443;DHT22;3254;47.372;8.512;2022-12-20T12:51:38;16.40;1.00
6443;DHT22;3254;47.372;8.512;2022-12-20T12:54:28;16.30;1.00
6443;DHT22;3254;47.372;8.512;2022-12-20T12:57:15;16.60;1.00
6443;DHT22;3254;47.372;8.512;2022-12-20T12:59:44;16.50;1.00
6443;DHT22;3254;47.372;8.512;2022-12-20T13:04:53;15.10;1.00
6443;DHT22;3254;47.372;8.512;2022-12-20T13:09:59;14.00;1.00
6443;DHT22;3254;47.372;8.512;2022-12-20T13:20:28;12.80;1.00
6443;DHT22;3254;47.372;8.512;2022-12-20T13:25:37;13.50;1.00
6443;DHT22;3254;47.372;8.512;2022-12-20T13:30:45;13.30;1.00
6443;DHT22;3254;47.372;8.512;2022-12-20T13:35:56;12.60;1.00
6443;DHT22;3254;47.372;8.512;2022-12-20T13:43:56;11.30;1.00
6443;DHT22;3254;47.372;8.512;2022-12-20T13:46:57;11.10;1.00
6443;DHT22;3254;47.372;8.512;2022-12-20T13:49:27;11.10;1.00
6443;DHT22;3254;47.372;8.512;2022-12-20T13:55:16;11.10;1.00
6443;DHT22;3254;47.372;8.512;2022-12-20T13:57:43;10.90;1.00
6443;DHT22;3254;47.372;8.512;2022-12-20T14:00:18;10.80;1.00
6443;DHT22;3254;47.372;8.512;2022-12-20T14:02:46;10.70;1.00
6443;DHT22;3254;47.372;8.512;2022-12-20T14:07:46;10.20;1.00
6443;DHT22;3254;47.372;8.512;2022-12-20T14:10:19;10.20;1.00
6443;DHT22;3254;47.372;8.512;2022-12-20T14:12:47;10.10;1.00
6443;DHT22;3254;47.372;8.512;2022-12-20T14:15:25;10.10;1.00
6443;DHT22;3254;47.372;8.512;2022-12-20T14:17:51;10.00;1.00
6443;DHT22;3254;47.372;8.512;2022-12-20T14:20:25;9.80;1.00
6443;DHT22;3254;47.372;8.512;2022-12-20T14:23:04;9.90;1.00
6443;DHT22;3254;47.372;8.512;2022-12-20T14:25:55;9.80;1.00
6443;DHT22;3254;47.372;8.512;2022-12-20T14:28:48;9.70;1.00
6443;DHT22;3254;47.372;8.512;2022-12-20T14:36:27;9.50;1.00
6443;DHT22;3254;47.372;8.512;2022-12-20T14:38:55;9.50;1.00
6443;DHT22;3254;47.372;8.512;2022-12-20T14:46:29;9.50;1.00
6443;DHT22;3254;47.372;8.512;2022-12-20T14:49:27;9.60;1.00
6443;DHT22;3254;47.372;8.512;2022-12-20T14:52:16;9.70;1.00
6443;DHT22;3254;47.372;8.512;2022-12-20T14:57:26;9.60;1.00
6443;DHT22;3254;47.372;8.512;2022-12-20T15:02:34;9.20;1.00
6443;DHT22;3254;47.372;8.512;2022-12-20T15:05:51;9.00;1.00
6443;DHT22;3254;47.372;8.512;2022-12-20T15:07:51;8.90;1.00
6443;DHT22;3254;47.372;8.512;2022-12-20T15:10:17;8.70;1.00
6443;DHT22;3254;47.372;8.512;2022-12-20T15:12:43;8.60;1.00
6443;DHT22;3254;47.372;8.512;2022-12-20T15:15:14;8.50;1.00
6443;DHT22;3254;47.372;8.512;2022-12-20T15:17:40;8.30;1.00
6443;DHT22;3254;47.372;8.512;2022-12-20T15:20:11;8.10;1.00
6443;DHT22;3254;47.372;8.512;2022-12-20T15:22:37;8.10;1.00
6443;DHT22;3254;47.372;8.512;2022-12-20T15:25:14;8.00;1.00
6443;DHT22;3254;47.372;8.512;2022-12-20T15:27:41;7.90;1.00
6443;DHT22;3254;47.372;8.512;2022-12-20T15:30:16;7.90;1.00
6443;DHT22;3254;47.372;8.512;2022-12-20T15:32:43;7.70;1.00
6443;DHT22;3254;47.372;8.512;2022-12-20T15:35:12;7.70;1.00
6443;DHT22;3254;47.372;8.512;2022-12-20T15:37:39;7.60;1.00
6443;DHT22;3254;47.372;8.512;2022-12-20T15:40:05;7.60;1.00
6443;DHT22;3254;47.372;8.512;2022-12-20T15:42:31;7.60;1.00
6443;DHT22;3254;47.372;8.512;2022-12-20T15:44:56;7.70;1.00
6443;DHT22;3254;47.372;8.512;2022-12-20T15:47:22;7.60;1.00
6443;DHT22;3254;47.372;8.512;2022-12-20T15:49:48;7.50;1.00
6443;DHT22;3254;47.372;8.512;2022-12-20T15:52:21;7.40;1.00
6443;DHT22;3254;47.372;8.512;2022-12-20T15:54:48;7.40;1.00
6443;DHT22;3254;47.372;8.512;2022-12-20T15:57:14;7.30;1.00
6443;DHT22;3254;47.372;8.512;2022-12-20T15:59:40;7.40;1.00
6443;DHT22;3254;47.372;8.512;2022-12-20T16:02:23;7.40;1.00
6443;DHT22;3254;47.372;8.512;2022-12-20T16:04:50;7.50;1.00
6443;DHT22;3254;47.372;8.512;2022-12-20T16:07:16;7.50;1.00
6443;DHT22;3254;47.372;8.512;2022-12-20T16:09:42;7.50;1.00
6443;DHT22;3254;47.372;8.512;2022-12-20T16:12:18;7.40;1.00
6443;DHT22;3254;47.372;8.512;2022-12-20T16:14:45;7.50;1.00
6443;DHT22;3254;47.372;8.512;2022-12-20T16:17:14;7.50;1.00
6443;DHT22;3254;47.372;8.512;2022-12-20T16:19:41;7.50;1.00
6443;DHT22;3254;47.372;8.512;2022-12-20T16:22:33;7.50;1.00
6443;DHT22;3254;47.372;8.512;2022-12-20T16:24:58;7.50;1.00
6443;DHT22;3254;47.372;8.512;2022-12-20T16:27:24;7.50;1.00
6443;DHT22;3254;47.372;8.512;2022-12-20T16:29:49;7.50;1.00
6443;DHT22;3254;47.372;8.512;2022-12-20T16:32:19;7.50;1.00
6443;DHT22;3254;47.372;8.512;2022-12-20T16:34:49;7.60;1.00
6443;DHT22;3254;47.372;8.512;2022-12-20T16:37:14;7.50;1.00
6443;DHT22;3254;47.372;8.512;2022-12-20T16:39:40;7.60;1.00
6443;DHT22;3254;47.372;8.512;2022-12-20T16:42:14;7.50;1.00
6443;DHT22;3254;47.372;8.512;2022-12-20T16:44:40;7.60;1.00
6443;DHT22;3254;47.372;8.512;2022-12-20T16:47:09;7.60;1.00
6443;DHT22;3254;47.372;8.512;2022-12-20T16:49:34;7.50;1.00
6443;DHT22;3254;47.372;8.512;2022-12-20T16:52:02;7.60;1.00
6443;DHT22;3254;47.372;8.512;2022-12-20T16:54:29;7.60;1.00
6443;DHT22;3254;47.372;8.512;2022-12-20T16:56:54;7.60;1.00
6443;DHT22;3254;47.372;8.512;2022-12-20T16:59:24;7.70;1.00
6443;DHT22;3254;47.372;8.512;2022-12-20T17:01:52;7.70;1.00
6443;DHT22;3254;47.372;8.512;2022-12-20T17:04:19;7.70;1.00
6443;DHT22;3254;47.372;8.512;2022-12-20T17:06:46;7.80;1.00
6443;DHT22;3254;47.372;8.512;2022-12-20T17:09:12;7.80;1.00
6443;DHT22;3254;47.372;8.512;2022-12-20T17:11:37;7.80;1.00
6443;DHT22;3254;47.372;8.512;2022-12-20T17:14:03;7.80;1.00
6443;DHT22;3254;47.372;8.512;2022-12-20T17:16:29;7.80;1.00
6443;DHT22;3254;47.372;8.512;2022-12-20T17:18:56;7.80;1.00
6443;DHT22;3254;47.372;8.512;2022-12-20T17:21:37;7.90;1.00
6443;DHT22;3254;47.372;8.512;2022-12-20T17:24:05;7.80;1.00
6443;DHT22;3254;47.372;8.512;2022-12-20T17:26:32;7.80;1.00
6443;DHT22;3254;47.372;8.512;2022-12-20T17:28:58;7.90;1.00
6443;DHT22;3254;47.372;8.512;2022-12-20T17:33:54;7.90;1.00
6443;DHT22;3254;47.372;8.512;2022-12-20T17:36:20;7.90;1.00
6443;DHT22;3254;47.372;8.512;2022-12-20T17:38:46;7.90;1.00
6443;DHT22;3254;47.372;8.512;2022-12-20T17:41:22;7.90;1.00
6443;DHT22;3254;47.372;8.512;2022-12-20T17:43:49;8.00;1.00
6443;DHT22;3254;47.372;8.512;2022-12-20T17:46:14;7.90;1.00
6443;DHT22;3254;47.372;8.512;2022-12-20T17:48:40;8.00;1.00
6443;DHT22;3254;47.372;8.512;2022-12-20T17:51:20;8.00;1.00
6443;DHT22;3254;47.372;8.512;2022-12-20T17:53:51;8.00;1.00
6443;DHT22;3254;47.372;8.512;2022-12-20T17:56:20;7.90;1.00
6443;DHT22;3254;47.372;8.512;2022-12-20T17:58:47;8.00;1.00
6443;DHT22;3254;47.372;8.512;2022-12-20T18:01:26;7.90;1.00
6443;DHT22;3254;47.372;8.512;2022-12-20T18:03:54;7.90;1.00
6443;DHT22;3254;47.372;8.512;2022-12-20T18:06:21;7.80;1.00
6443;DHT22;3254;47.372;8.512;2022-12-20T18:08:48;7.80;1.00
6443;DHT22;3254;47.372;8.512;2022-12-20T18:11:14;7.80;1.00
6443;DHT22;3254;47.372;8.512;2022-12-20T18:13:48;7.70;1.00
6443;DHT22;3254;47.372;8.512;2022-12-20T18:16:16;7.70;1.00
6443;DHT22;3254;47.372;8.512;2022-12-20T18:18:44;7.60;1.00
6443;DHT22;3254;47.372;8.512;2022-12-20T18:21:12;7.60;1.00
6443;DHT22;3254;47.372;8.512;2022-12-20T18:23:42;7.60;1.00
6443;DHT22;3254;47.372;8.512;2022-12-20T18:28:43;7.50;1.00
6443;DHT22;3254;47.372;8.512;2022-12-20T18:31:12;7.50;1.00
6443;DHT22;3254;47.372;8.512;2022-12-20T18:33:38;7.50;1.00
6443;DHT22;3254;47.372;8.512;2022-12-20T18:36:15;7.40;1.00